createdAt,value
2019-05-29T00:00:48.431Z,100.00
2019-05-29T00:03:15.199Z,100.00
2019-05-29T00:05:41.978Z,100.00
2019-05-29T00:08:08.661Z,100.00
2019-05-29T00:10:35.350Z,100.00
2019-05-29T00:13:02.139Z,100.00
2019-05-29T00:15:28.908Z,100.00
2019-05-29T00:17:55.566Z,100.00
2019-05-29T00:20:23.484Z,100.00
2019-05-29T00:22:50.253Z,100.00
2019-05-29T00:25:17.053Z,100.00
2019-05-29T00:27:43.842Z,100.00
2019-05-29T00:30:13.488Z,100.00
2019-05-29T00:32:40.236Z,100.00
2019-05-29T00:35:08.267Z,100.00
2019-05-29T00:37:35.192Z,100.00
2019-05-29T00:40:02.209Z,100.00
2019-05-29T00:42:30.926Z,100.00
2019-05-29T00:44:58.010Z,100.00
2019-05-29T00:47:24.706Z,100.00
2019-05-29T00:49:51.406Z,100.00
2019-05-29T00:52:18.447Z,100.00
2019-05-29T00:54:45.314Z,100.00
2019-05-29T00:57:12.934Z,100.00
2019-05-29T00:59:39.676Z,100.00
2019-05-29T01:02:06.458Z,100.00
2019-05-29T01:04:33.142Z,100.00
2019-05-29T01:06:59.964Z,100.00
2019-05-29T01:09:26.745Z,100.00
2019-05-29T01:11:53.458Z,100.00
2019-05-29T01:14:21.236Z,100.00
2019-05-29T01:16:48.361Z,100.00
2019-05-29T01:19:23.620Z,100.00
2019-05-29T01:21:50.409Z,100.00
2019-05-29T01:24:18.353Z,100.00
2019-05-29T01:26:45.146Z,100.00
2019-05-29T01:29:12.969Z,100.00
2019-05-29T01:31:39.833Z,100.00
2019-05-29T01:34:06.617Z,100.00
2019-05-29T01:36:33.286Z,100.00
2019-05-29T01:39:00.090Z,100.00
2019-05-29T01:41:27.605Z,100.00
2019-05-29T01:43:54.324Z,100.00
2019-05-29T01:46:21.523Z,100.00
2019-05-29T01:48:48.365Z,100.00
2019-05-29T01:51:15.460Z,100.00
2019-05-29T01:53:42.258Z,100.00
2019-05-29T01:56:08.924Z,100.00
2019-05-29T01:58:35.612Z,100.00
2019-05-29T02:01:02.319Z,100.00
2019-05-29T02:03:29.786Z,100.00
2019-05-29T02:05:56.503Z,100.00
2019-05-29T02:08:24.271Z,100.00
2019-05-29T02:10:50.993Z,100.00
2019-05-29T02:13:19.322Z,100.00
2019-05-29T02:15:46.473Z,100.00
2019-05-29T02:18:13.270Z,100.00
2019-05-29T02:20:39.951Z,100.00
2019-05-29T02:23:07.675Z,100.00
2019-05-29T02:25:34.362Z,100.00
2019-05-29T02:28:01.087Z,100.00
2019-05-29T02:30:30.516Z,100.00
2019-05-29T02:32:56.580Z,100.00
2019-05-29T02:35:24.763Z,100.00
2019-05-29T02:37:52.076Z,100.00
2019-05-29T02:40:20.973Z,100.00
2019-05-29T02:42:47.645Z,100.00
2019-05-29T02:45:14.580Z,100.00
2019-05-29T02:47:41.289Z,100.00
2019-05-29T02:50:08.709Z,100.00
2019-05-29T02:52:35.545Z,100.00
2019-05-29T02:55:02.872Z,100.00
2019-05-29T02:57:30.953Z,100.00
2019-05-29T02:59:57.968Z,100.00
2019-05-29T03:02:25.573Z,100.00
2019-05-29T03:04:52.438Z,100.00
2019-05-29T03:07:19.360Z,100.00
2019-05-29T03:09:46.274Z,100.00
2019-05-29T03:12:13.118Z,100.00
2019-05-29T03:14:41.589Z,100.00
2019-05-29T03:17:08.349Z,100.00
2019-05-29T03:19:35.160Z,100.00
2019-05-29T03:22:01.871Z,100.00
2019-05-29T03:24:29.196Z,100.00
2019-05-29T03:26:57.334Z,100.00
2019-05-29T03:29:25.762Z,100.00
2019-05-29T03:31:52.631Z,100.00
2019-05-29T03:34:19.301Z,100.00
2019-05-29T03:36:48.183Z,100.00
2019-05-29T03:39:14.768Z,100.00
2019-05-29T03:41:41.434Z,100.00
2019-05-29T03:44:10.430Z,100.00
2019-05-29T03:46:42.734Z,100.00
2019-05-29T03:49:05.581Z,100.00
2019-05-29T03:51:34.504Z,100.00
2019-05-29T03:54:01.039Z,100.00
2019-05-29T03:56:28.286Z,100.00
2019-05-29T03:58:55.271Z,100.00
2019-05-29T04:01:22.213Z,100.00
2019-05-29T04:03:48.902Z,100.00
2019-05-29T04:06:15.627Z,100.00
2019-05-29T04:08:42.327Z,100.00
2019-05-29T04:11:09.115Z,100.00
2019-05-29T04:13:36.653Z,100.00
2019-05-29T04:16:05.288Z,100.00
2019-05-29T04:18:33.701Z,100.00
2019-05-29T04:21:01.659Z,100.00
2019-05-29T04:23:33.922Z,100.00
2019-05-29T04:26:01.531Z,100.00
2019-05-29T04:28:30.195Z,100.00
2019-05-29T04:30:56.980Z,100.00
2019-05-29T04:33:23.686Z,100.00
2019-05-29T04:35:50.365Z,100.00
2019-05-29T04:38:17.058Z,100.00
2019-05-29T04:40:45.312Z,100.00
2019-05-29T04:43:12.210Z,100.00
2019-05-29T04:45:40.722Z,100.00
2019-05-29T04:48:07.731Z,100.00
2019-05-29T04:50:36.486Z,100.00
2019-05-29T04:53:03.619Z,100.00
2019-05-29T04:55:30.739Z,100.00
2019-05-29T04:57:57.527Z,100.00
2019-05-29T05:00:26.283Z,100.00
2019-05-29T05:02:53.846Z,100.00
2019-05-29T05:05:21.450Z,100.00
2019-05-29T05:07:48.266Z,100.00
2019-05-29T05:14:03.996Z,100.00
2019-05-29T05:16:31.670Z,100.00
2019-05-29T05:18:58.718Z,100.00
2019-05-29T05:21:27.098Z,100.00
2019-05-29T05:23:53.921Z,100.00
2019-05-29T05:26:20.744Z,100.00
2019-05-29T05:28:47.646Z,100.00
2019-05-29T05:31:14.670Z,100.00
2019-05-29T05:33:41.455Z,100.00
2019-05-29T05:36:24.684Z,100.00
2019-05-29T05:38:53.757Z,100.00
2019-05-29T05:41:20.565Z,100.00
2019-05-29T05:43:47.217Z,100.00
2019-05-29T05:46:13.884Z,100.00
2019-05-29T05:48:41.617Z,100.00
2019-05-29T05:51:08.649Z,100.00
2019-05-29T05:53:35.469Z,100.00
2019-05-29T05:56:02.170Z,100.00
2019-05-29T05:58:28.947Z,100.00
2019-05-29T06:00:55.656Z,100.00
2019-05-29T06:03:22.473Z,100.00
2019-05-29T06:05:50.270Z,100.00
2019-05-29T06:08:16.956Z,100.00
2019-05-29T06:10:43.744Z,100.00
2019-05-29T06:13:10.528Z,100.00
2019-05-29T06:15:38.387Z,100.00
2019-05-29T06:18:20.530Z,100.00
2019-05-29T06:20:34.713Z,100.00
2019-05-29T06:23:01.591Z,100.00
2019-05-29T06:25:28.370Z,100.00
2019-05-29T06:27:55.266Z,100.00
2019-05-29T06:30:22.976Z,100.00
2019-05-29T06:32:49.674Z,100.00
2019-05-29T06:35:16.622Z,100.00
2019-05-29T06:37:43.750Z,100.00
2019-05-29T06:40:10.953Z,100.00
2019-05-29T06:42:37.935Z,100.00
2019-05-29T06:45:05.415Z,100.00
2019-05-29T06:47:34.136Z,100.00
2019-05-29T06:50:01.046Z,100.00
2019-05-29T06:52:27.744Z,100.00
2019-05-29T06:54:55.171Z,100.00
2019-05-29T06:57:25.766Z,100.00
2019-05-29T06:59:50.565Z,100.00
2019-05-29T07:02:17.586Z,100.00
2019-05-29T07:04:44.878Z,100.00
2019-05-29T07:07:11.649Z,100.00
2019-05-29T07:09:38.831Z,97.12
2019-05-29T07:12:05.659Z,99.89
2019-05-29T07:14:33.012Z,100.00
2019-05-29T07:16:59.915Z,96.09
2019-05-29T07:19:47.117Z,100.00
2019-05-29T07:21:55.887Z,100.00
2019-05-29T07:24:23.003Z,100.00
2019-05-29T07:26:49.666Z,100.00
2019-05-29T07:29:16.466Z,100.00
2019-05-29T07:31:45.050Z,92.35
2019-05-29T07:34:11.973Z,97.23
2019-05-29T07:36:39.930Z,100.00
2019-05-29T07:39:07.106Z,100.00
2019-05-29T07:41:33.739Z,100.00
2019-05-29T07:44:00.518Z,100.00
2019-05-29T07:46:27.339Z,98.44
2019-05-29T07:48:54.016Z,100.00
2019-05-29T07:51:20.874Z,99.00
2019-05-29T07:53:48.754Z,98.26
2019-05-29T07:57:11.391Z,98.26
2019-05-29T07:59:38.584Z,96.65
2019-05-29T08:02:05.568Z,99.29
2019-05-29T08:04:32.535Z,94.67
2019-05-29T08:06:59.439Z,99.86
2019-05-29T08:09:26.277Z,99.64
2019-05-29T08:11:52.972Z,97.17
2019-05-29T08:14:19.770Z,93.42
2019-05-29T08:16:46.526Z,97.56
2019-05-29T08:19:13.187Z,94.16
2019-05-29T08:21:41.031Z,89.99
2019-05-29T08:24:08.417Z,87.27
2019-05-29T08:26:35.126Z,90.15
2019-05-29T08:29:01.906Z,92.94
2019-05-29T08:31:29.701Z,84.65
2019-05-29T08:33:56.487Z,92.49
2019-05-29T08:36:23.362Z,91.43
2019-05-29T08:38:51.542Z,91.07
2019-05-29T08:41:18.547Z,93.38
2019-05-29T08:43:46.608Z,88.24
2019-05-29T08:46:13.735Z,88.38
2019-05-29T08:48:41.685Z,95.10
2019-05-29T08:51:09.650Z,92.38
2019-05-29T08:53:36.350Z,90.99
2019-05-29T08:56:03.271Z,87.45
2019-05-29T08:58:30.054Z,87.29
2019-05-29T09:00:56.726Z,84.04
2019-05-29T09:03:23.418Z,82.40
2019-05-29T09:06:05.258Z,82.99
2019-05-29T09:08:18.782Z,89.17
2019-05-29T09:10:45.518Z,87.65
2019-05-29T09:13:12.332Z,84.18
2019-05-29T09:15:39.080Z,85.12
2019-05-29T09:18:05.857Z,77.81
2019-05-29T09:21:00.225Z,77.51
2019-05-29T09:23:01.132Z,78.65
2019-05-29T09:25:28.026Z,82.24
2019-05-29T09:27:54.726Z,76.81
2019-05-29T09:30:21.891Z,84.07
2019-05-29T09:32:52.032Z,80.89
2019-05-29T09:35:19.451Z,70.75
2019-05-29T09:37:46.412Z,69.56
2019-05-29T09:40:17.092Z,69.92
2019-05-29T09:42:43.908Z,73.10
2019-05-29T09:45:11.115Z,72.48
2019-05-29T09:47:37.911Z,69.93
2019-05-29T09:50:04.977Z,73.19
2019-05-29T09:52:31.674Z,65.42
2019-05-29T09:54:58.446Z,63.11
2019-05-29T09:57:25.126Z,68.64
2019-05-29T09:59:53.765Z,69.78
2019-05-29T10:02:20.678Z,68.91
2019-05-29T10:04:47.412Z,75.26
2019-05-29T10:07:14.229Z,73.74
2019-05-29T10:09:40.922Z,70.26
2019-05-29T10:12:07.629Z,73.19
2019-05-29T10:14:34.415Z,69.61
2019-05-29T10:17:05.767Z,70.54
2019-05-29T10:19:30.760Z,70.15
2019-05-29T10:21:58.315Z,73.01
2019-05-29T10:24:26.341Z,78.36
2019-05-29T10:26:53.132Z,78.23
2019-05-29T10:29:19.838Z,76.01
2019-05-29T10:31:47.705Z,70.52
2019-05-29T10:34:15.261Z,71.57
2019-05-29T10:36:42.349Z,71.68
2019-05-29T10:39:12.626Z,72.94
2019-05-29T10:41:37.865Z,70.03
2019-05-29T10:44:04.679Z,71.95
2019-05-29T10:46:31.475Z,68.49
2019-05-29T10:48:58.147Z,69.59
2019-05-29T10:51:24.833Z,63.84
2019-05-29T10:53:53.079Z,67.15
2019-05-29T10:56:21.788Z,63.78
2019-05-29T10:58:54.419Z,68.62
2019-05-29T11:01:17.160Z,69.71
2019-05-29T11:03:45.459Z,72.15
2019-05-29T11:06:12.376Z,75.55
2019-05-29T11:08:39.034Z,74.52
2019-05-29T11:11:05.715Z,72.91
2019-05-29T11:13:32.519Z,71.66
2019-05-29T11:15:59.314Z,68.53
2019-05-29T11:18:25.997Z,69.10
2019-05-29T11:20:53.474Z,73.75
2019-05-29T11:23:20.340Z,71.37
2019-05-29T11:25:47.875Z,72.16
2019-05-29T11:28:14.615Z,70.35
2019-05-29T11:30:41.339Z,69.99
2019-05-29T11:33:08.216Z,65.62
2019-05-29T11:35:34.986Z,67.93
2019-05-29T11:38:02.956Z,65.07
2019-05-29T11:40:30.226Z,65.77
2019-05-29T11:42:57.156Z,64.32
2019-05-29T11:45:23.845Z,61.63
2019-05-29T11:47:51.539Z,59.30
2019-05-29T11:50:20.176Z,60.24
2019-05-29T11:52:47.086Z,58.21
2019-05-29T11:55:13.960Z,59.38
2019-05-29T11:57:40.723Z,57.18
2019-05-29T12:00:18.930Z,55.25
2019-05-29T12:02:36.701Z,54.60
2019-05-29T12:05:05.235Z,53.78
2019-05-29T12:07:31.934Z,56.31
2019-05-29T12:09:59.591Z,56.33
2019-05-29T12:12:26.475Z,59.90
2019-05-29T12:15:04.911Z,63.04
2019-05-29T12:17:21.792Z,60.57
2019-05-29T12:19:48.523Z,56.48
2019-05-29T12:22:15.212Z,55.11
2019-05-29T12:24:41.894Z,51.79
2019-05-29T12:27:08.592Z,52.91
2019-05-29T12:29:35.272Z,50.70
2019-05-29T12:32:07.425Z,47.23
2019-05-29T12:34:30.882Z,48.39
2019-05-29T12:36:57.578Z,49.40
2019-05-29T12:39:24.413Z,45.35
2019-05-29T12:41:51.157Z,45.57
2019-05-29T12:44:17.947Z,44.29
2019-05-29T12:46:44.750Z,44.12
2019-05-29T12:49:11.533Z,46.16
2019-05-29T12:51:38.334Z,48.17
2019-05-29T12:54:05.367Z,46.79
2019-05-29T12:56:32.139Z,47.06
2019-05-29T12:59:00.408Z,45.37
2019-05-29T13:01:27.335Z,44.19
2019-05-29T13:03:54.248Z,42.07
2019-05-29T13:06:20.911Z,42.71
2019-05-29T13:08:47.639Z,42.08
2019-05-29T13:11:14.334Z,41.58
2019-05-29T13:13:41.042Z,38.82
2019-05-29T13:16:08.722Z,37.79
2019-05-29T13:18:35.531Z,40.62
2019-05-29T13:21:03.093Z,41.84
2019-05-29T13:23:44.175Z,42.74
2019-05-29T13:25:59.408Z,40.43
2019-05-29T13:28:26.370Z,38.60
2019-05-29T13:30:53.058Z,37.90
2019-05-29T13:33:19.753Z,39.18
2019-05-29T13:35:47.573Z,37.86
2019-05-29T13:38:14.257Z,40.08
2019-05-29T13:40:41.082Z,37.25
2019-05-29T13:43:14.952Z,35.58
2019-05-29T13:45:36.394Z,37.24
2019-05-29T13:48:03.571Z,37.69
2019-05-29T13:50:30.417Z,37.42
2019-05-29T13:52:57.217Z,38.00
2019-05-29T13:55:24.013Z,38.23
2019-05-29T13:57:50.708Z,36.11
2019-05-29T14:00:32.545Z,34.42
2019-05-29T14:02:46.803Z,36.30
2019-05-29T14:05:14.126Z,35.95
2019-05-29T14:07:40.793Z,35.22
2019-05-29T14:10:09.237Z,35.35
2019-05-29T14:12:36.901Z,36.93
2019-05-29T14:15:06.397Z,35.32
2019-05-29T14:17:34.836Z,36.12
2019-05-29T14:20:02.664Z,34.77
2019-05-29T14:22:29.639Z,35.29
2019-05-29T14:24:56.338Z,36.02
2019-05-29T14:27:23.135Z,36.61
2019-05-29T14:29:49.803Z,35.44
2019-05-29T14:32:16.879Z,35.40
2019-05-29T14:34:43.564Z,37.26
2019-05-29T14:37:11.644Z,36.71
2019-05-29T14:39:38.606Z,35.81
2019-05-29T14:42:06.000Z,36.83
2019-05-29T14:44:32.926Z,36.99
2019-05-29T14:46:59.634Z,37.29
2019-05-29T14:49:27.115Z,37.38
2019-05-29T14:51:53.974Z,36.53
2019-05-29T14:54:20.678Z,36.81
2019-05-29T14:56:47.393Z,37.08
2019-05-29T14:59:14.274Z,38.44
2019-05-29T15:01:40.976Z,37.42
2019-05-29T15:04:07.754Z,40.32
2019-05-29T15:06:34.528Z,41.62
2019-05-29T15:09:01.241Z,42.05
2019-05-29T15:11:28.041Z,40.73
2019-05-29T15:13:55.325Z,40.93
2019-05-29T15:16:22.145Z,40.14
2019-05-29T15:18:48.961Z,41.58
2019-05-29T15:21:15.739Z,41.07
2019-05-29T15:26:22.547Z,41.66
2019-05-29T15:28:49.278Z,42.29
2019-05-29T15:31:16.580Z,43.10
2019-05-29T15:33:43.453Z,43.82
2019-05-29T15:36:10.622Z,43.80
2019-05-29T15:38:37.464Z,43.51
2019-05-29T15:41:04.250Z,43.77
2019-05-29T15:43:30.956Z,42.73
2019-05-29T15:45:57.618Z,44.79
2019-05-29T15:48:24.383Z,47.07
2019-05-29T15:50:51.046Z,42.73
2019-05-29T15:53:17.744Z,42.16
2019-05-29T15:55:44.566Z,43.00
2019-05-29T15:58:11.698Z,42.29
2019-05-29T16:00:38.519Z,43.11
2019-05-29T16:03:05.417Z,42.66
2019-05-29T16:05:32.222Z,43.72
2019-05-29T16:07:58.941Z,43.09
2019-05-29T16:10:25.893Z,42.78
2019-05-29T16:12:52.670Z,44.08
2019-05-29T16:15:19.764Z,42.16
2019-05-29T16:17:47.699Z,40.12
2019-05-29T16:20:14.851Z,40.50
2019-05-29T16:22:41.996Z,40.34
2019-05-29T16:25:09.098Z,42.56
2019-05-29T16:27:35.842Z,39.92
2019-05-29T16:30:02.685Z,40.08
2019-05-29T16:32:29.688Z,39.71
2019-05-29T16:34:56.498Z,43.58
2019-05-29T16:37:23.391Z,41.94
2019-05-29T16:39:50.083Z,38.59
2019-05-29T16:42:18.074Z,39.70
2019-05-29T16:44:45.049Z,39.68
2019-05-29T16:47:12.545Z,41.90
2019-05-29T16:49:39.410Z,38.21
2019-05-29T16:52:06.138Z,41.55
2019-05-29T16:54:32.815Z,40.00
2019-05-29T16:56:59.855Z,39.12
2019-05-29T16:59:29.767Z,40.40
2019-05-29T17:01:55.154Z,42.27
2019-05-29T17:04:21.870Z,41.31
2019-05-29T17:06:48.787Z,39.46
2019-05-29T17:09:16.339Z,39.57
2019-05-29T17:11:43.361Z,38.94
2019-05-29T17:14:10.136Z,40.10
2019-05-29T17:16:36.846Z,39.89
2019-05-29T17:19:03.939Z,40.10
2019-05-29T17:21:30.713Z,41.16
2019-05-29T17:23:57.626Z,40.18
2019-05-29T17:26:25.030Z,41.72
2019-05-29T17:28:51.926Z,41.90
2019-05-29T17:31:18.967Z,42.54
2019-05-29T17:33:46.836Z,40.43
2019-05-29T17:36:14.785Z,40.36
2019-05-29T17:38:41.756Z,42.48
2019-05-29T17:41:09.099Z,41.09
2019-05-29T17:43:35.880Z,40.48
2019-05-29T17:46:02.665Z,40.81
2019-05-29T17:48:29.556Z,41.03
2019-05-29T17:50:56.223Z,41.67
2019-05-29T17:53:24.223Z,41.89
2019-05-29T17:55:51.307Z,42.34
2019-05-29T17:58:18.688Z,44.50
2019-05-29T18:00:46.575Z,42.81
2019-05-29T18:03:14.364Z,42.01
2019-05-29T18:05:41.150Z,42.45
2019-05-29T18:08:08.895Z,42.23
2019-05-29T18:10:35.713Z,41.66
2019-05-29T18:13:02.620Z,42.39
2019-05-29T18:15:29.641Z,42.23
2019-05-29T18:17:56.304Z,42.03
2019-05-29T18:20:23.737Z,42.97
2019-05-29T18:22:50.602Z,42.26
2019-05-29T18:25:19.792Z,42.71
2019-05-29T18:27:46.846Z,43.42
2019-05-29T18:30:14.690Z,43.96
2019-05-29T18:32:41.476Z,43.46
2019-05-29T18:35:08.672Z,43.30
2019-05-29T18:37:35.491Z,45.16
2019-05-29T18:40:02.748Z,43.55
2019-05-29T18:42:29.507Z,44.13
2019-05-29T18:44:56.282Z,43.42
2019-05-29T18:47:23.106Z,44.40
2019-05-29T18:49:49.871Z,43.74
2019-05-29T18:52:16.550Z,46.01
2019-05-29T18:54:43.247Z,46.05
2019-05-29T18:57:15.774Z,46.72
2019-05-29T18:59:38.622Z,46.46
2019-05-29T19:02:05.917Z,46.45
2019-05-29T19:04:55.179Z,46.50
2019-05-29T19:07:22.068Z,46.92
2019-05-29T19:09:48.859Z,47.29
2019-05-29T19:12:15.656Z,47.12
2019-05-29T19:14:45.088Z,47.57
2019-05-29T19:17:11.939Z,48.30
2019-05-29T19:19:38.734Z,50.39
2019-05-29T19:22:05.605Z,50.28
2019-05-29T19:24:50.622Z,49.07
2019-05-29T19:27:30.204Z,50.05
2019-05-29T19:29:46.082Z,52.17
2019-05-29T19:32:12.855Z,54.58
2019-05-29T19:34:39.639Z,56.65
2019-05-29T19:37:06.438Z,58.56
2019-05-29T19:39:34.168Z,60.69
2019-05-29T19:42:01.055Z,61.46
2019-05-29T19:44:28.382Z,62.49
2019-05-29T19:46:55.139Z,63.69
2019-05-29T19:49:21.822Z,63.50
2019-05-29T19:51:48.538Z,64.96
2019-05-29T19:54:15.248Z,65.66
2019-05-29T19:56:41.945Z,69.75
2019-05-29T19:59:08.657Z,69.04
2019-05-29T20:01:40.314Z,70.71
2019-05-29T20:04:06.214Z,70.30
2019-05-29T20:06:37.217Z,73.22
2019-05-29T20:09:05.670Z,71.19
2019-05-29T20:11:33.715Z,72.89
2019-05-29T20:14:02.495Z,71.35
2019-05-29T20:16:30.100Z,73.67
2019-05-29T20:18:57.004Z,68.72
2019-05-29T20:21:25.107Z,70.78
2019-05-29T20:23:52.074Z,68.72
2019-05-29T20:26:21.398Z,66.48
2019-05-29T20:28:48.378Z,70.56
2019-05-29T20:31:17.200Z,67.80
2019-05-29T20:33:46.982Z,68.66
2019-05-29T20:36:15.833Z,68.72
2019-05-29T20:38:42.834Z,68.37
2019-05-29T20:41:09.569Z,71.85
2019-05-29T20:43:37.544Z,68.92
2019-05-29T20:46:04.554Z,67.74
2019-05-29T20:48:32.507Z,67.51
2019-05-29T20:51:02.045Z,67.56
2019-05-29T20:53:29.305Z,69.26
2019-05-29T20:55:56.435Z,65.46
2019-05-29T20:58:24.972Z,66.45
2019-05-29T21:00:52.037Z,66.55
2019-05-29T21:03:19.074Z,67.34
2019-05-29T21:05:45.835Z,66.84
2019-05-29T21:08:13.565Z,65.40
2019-05-29T21:10:41.924Z,63.80
2019-05-29T21:13:08.878Z,66.01
2019-05-29T21:15:35.758Z,65.08
2019-05-29T21:18:02.634Z,64.91
2019-05-29T21:20:29.334Z,68.87
2019-05-29T21:22:56.151Z,70.18
2019-05-29T21:25:22.971Z,68.51
2019-05-29T21:27:49.928Z,68.34
2019-05-29T21:30:22.037Z,66.59
2019-05-29T21:32:48.946Z,65.56
2019-05-29T21:35:15.842Z,64.29
2019-05-29T21:37:42.600Z,64.58
2019-05-29T21:40:09.891Z,64.94
2019-05-29T21:42:36.730Z,65.81
2019-05-29T21:45:04.165Z,62.88
2019-05-29T21:47:31.135Z,62.88
2019-05-29T21:49:57.821Z,66.50
2019-05-29T21:52:24.661Z,66.50
2019-05-29T21:54:51.348Z,65.47
2019-05-29T21:57:18.138Z,67.46
2019-05-29T21:59:45.904Z,69.76
2019-05-29T22:02:13.099Z,69.76
2019-05-29T22:04:40.333Z,68.96
2019-05-29T22:07:07.196Z,68.77
2019-05-29T22:09:35.436Z,68.77
2019-05-29T22:12:02.353Z,66.28
2019-05-29T22:14:30.480Z,66.75
2019-05-29T22:16:57.230Z,67.33
2019-05-29T22:19:24.058Z,64.84
2019-05-29T22:21:50.959Z,67.71
2019-05-29T22:24:17.777Z,67.71
2019-05-29T22:26:44.562Z,68.45
2019-05-29T22:29:17.958Z,67.83
2019-05-29T22:31:39.931Z,69.46
2019-05-29T22:34:06.826Z,69.46
2019-05-29T22:36:33.711Z,70.28
2019-05-29T22:39:01.707Z,70.03
2019-05-29T22:41:30.585Z,70.52
2019-05-29T22:43:57.598Z,70.52
2019-05-29T22:46:24.457Z,73.31
2019-05-29T22:48:51.667Z,73.31
2019-05-29T22:51:18.334Z,73.67
2019-05-29T22:53:45.013Z,76.58
2019-05-29T22:56:11.801Z,80.03
2019-05-29T22:58:38.585Z,75.26
2019-05-29T23:01:06.489Z,75.26
2019-05-29T23:03:33.218Z,81.20
2019-05-29T23:06:00.418Z,81.20
2019-05-29T23:08:27.335Z,78.38
2019-05-29T23:10:54.229Z,78.38
2019-05-29T23:13:21.171Z,80.85
2019-05-29T23:15:47.901Z,83.39
2019-05-29T23:18:14.733Z,83.39
2019-05-29T23:20:41.447Z,86.07
2019-05-29T23:23:08.179Z,86.30
2019-05-29T23:25:34.937Z,86.95
2019-05-29T23:28:03.108Z,86.95
2019-05-29T23:30:30.800Z,91.71
2019-05-29T23:32:58.766Z,96.38
2019-05-29T23:35:25.732Z,94.09
2019-05-29T23:37:53.043Z,96.91
2019-05-29T23:40:19.941Z,98.06
2019-05-29T23:42:47.709Z,96.17
2019-05-29T23:45:14.510Z,93.19
2019-05-29T23:47:41.216Z,93.69
2019-05-29T23:50:09.459Z,93.69
2019-05-29T23:52:36.150Z,96.74
2019-05-29T23:55:04.060Z,100.00
2019-05-29T23:57:30.900Z,100.00
